Overview Statistics Trail Chart Weather Telemetry Raw packets
 

This is the latest recevied weather packets stored in our database for station/object S51FO-6. If no packets are shown the sender has not sent any weather packets the latest 10 day(s).

<< 4 5 6 7 8 9 10 >>
Time Temp. Humidity Pressure Rain* Wind** Luminosity Snow
1788465578 5.56° C 81% - 0 mm - - -
1788464983 5.56° C 81% - 0 mm - - -
1788464387 6.11° C 81% - 0 mm - - -
1788463787 6.11° C 81% - 0 mm - - -
1788463183 6.67° C 81% - 0 mm - - -
1788461980 7.22° C 80% - 0 mm - - -
1788460778 7.78° C 77% - 0 mm - - -
1788460178 8.33° C 76% - 0 mm - - -
1788459610 8.89° C 75% - 0 mm - - -
1788459578 8.89° C 75% - 0 mm - - -
1788458978 9.44° C 75% - 0 mm - - -
1788457778 10.56° C 74% - 0 mm - - -
1788457178 11.67° C 74% - 0 mm - - -
1788456578 12.22° C 74% - 0 mm - - -
1788455978 13.33° C 72% - 0 mm - - -
1788455378 14.44° C 70% - 0 mm - - -
1788452978 17.22° C 66% - 0 mm - - -
1788452378 17.78° C 64% - 0 mm - - -
1788451802 18.33° C 63% - 0 mm - - -
1788451178 18.89° C 64% - 0 mm - - -
1788450578 18.89° C 61% - 0 mm - - -
1788449978 20° C 58% - 0 mm - - -
1788448778 21.11° C 55% - 0 mm - - -
1788448178 21.11° C 56% - 0 mm - - -
1788447578 21.11° C 55% - 0 mm - - -

* Rain latest hour (hover to see other rain measurements)
** Current wind speed in m/s (hover to see current wind gust speed)